createdAt,value
2023-03-15T00:02:36.873Z,97692.66
2023-03-15T00:05:24.687Z,97697.06
2023-03-15T00:08:13.235Z,97702.44
2023-03-15T00:11:01.773Z,97709.50
2023-03-15T00:13:51.547Z,97714.50
2023-03-15T00:16:39.397Z,97726.69
2023-03-15T00:19:27.538Z,97724.06
2023-03-15T00:22:15.487Z,97721.69
2023-03-15T00:25:03.171Z,97728.41
2023-03-15T00:27:50.948Z,97724.94
2023-03-15T00:30:40.223Z,97743.44
2023-03-15T00:33:27.837Z,97748.94
2023-03-15T00:36:16.049Z,97735.13
2023-03-15T00:39:04.335Z,97746.56
2023-03-15T00:41:51.736Z,97767.56
2023-03-15T00:44:39.757Z,97774.63
2023-03-15T00:47:29.162Z,97774.03
2023-03-15T00:50:17.523Z,97780.94
2023-03-15T00:53:05.483Z,97784.41
2023-03-15T00:55:53.425Z,97797.78
2023-03-15T00:58:42.240Z,97809.81
2023-03-15T01:01:31.680Z,97821.91
2023-03-15T01:04:21.108Z,97824.88
2023-03-15T01:07:09.243Z,97821.78
2023-03-15T01:09:57.266Z,97832.06
2023-03-15T01:12:45.653Z,97830.38
2023-03-15T01:15:33.719Z,97831.59
2023-03-15T01:18:21.826Z,97821.22
2023-03-15T01:21:13.339Z,97824.91
2023-03-15T01:24:01.056Z,97829.69
2023-03-15T01:26:48.986Z,97831.72
2023-03-15T01:29:36.896Z,97836.25
2023-03-15T01:32:24.886Z,97840.78
2023-03-15T01:35:13.158Z,97841.97
2023-03-15T01:38:02.414Z,97849.53
2023-03-15T01:40:50.438Z,97847.81
2023-03-15T01:43:38.289Z,97849.53
2023-03-15T01:46:28.573Z,97848.66
2023-03-15T01:49:22.825Z,97858.78
2023-03-15T01:52:14.653Z,97856.16
2023-03-15T01:55:08.580Z,97855.47
2023-03-15T01:57:59.642Z,97866.19
2023-03-15T02:00:47.494Z,97864.28
2023-03-15T02:03:39.794Z,97875.03
2023-03-15T02:06:28.162Z,97878.00
2023-03-15T02:09:19.128Z,97885.88
2023-03-15T02:12:10.072Z,97887.41
2023-03-15T02:14:59.190Z,97891.13
2023-03-15T02:17:49.922Z,97892.06
2023-03-15T02:20:47.324Z,97887.88
2023-03-15T02:23:35.442Z,97891.47
2023-03-15T02:26:27.556Z,97901.97
2023-03-15T02:29:16.900Z,97894.22
2023-03-15T02:32:05.176Z,97891.81
2023-03-15T02:34:53.123Z,97898.84
2023-03-15T02:37:45.884Z,97907.91
2023-03-15T02:40:33.657Z,97921.00
2023-03-15T02:43:26.178Z,97920.50
2023-03-15T02:46:17.096Z,97931.00
2023-03-15T02:49:05.911Z,97929.34
2023-03-15T02:51:53.887Z,97938.16
2023-03-15T02:54:43.394Z,97944.22
2023-03-15T02:57:31.363Z,97962.91
2023-03-15T03:00:19.892Z,97969.13
2023-03-15T03:03:09.063Z,97973.53
2023-03-15T03:05:56.875Z,97974.59
2023-03-15T03:08:47.194Z,97990.44
2023-03-15T03:11:35.218Z,97996.53
2023-03-15T03:14:23.847Z,97997.59
2023-03-15T03:17:11.769Z,98015.34
2023-03-15T03:20:01.063Z,98018.28
2023-03-15T03:22:48.840Z,98026.38
2023-03-15T03:25:37.502Z,98032.69
2023-03-15T03:28:27.320Z,98032.69
2023-03-15T03:31:21.086Z,98039.22
2023-03-15T03:34:09.546Z,98048.22
2023-03-15T03:36:58.972Z,98045.00
2023-03-15T03:39:47.093Z,98051.16
2023-03-15T03:42:35.060Z,98064.72
2023-03-15T03:45:23.142Z,98069.22
2023-03-15T03:48:11.122Z,98073.94
2023-03-15T03:50:59.658Z,98074.38
2023-03-15T03:53:48.782Z,98084.97
2023-03-15T03:56:36.736Z,98078.38
2023-03-15T03:59:24.642Z,98091.09
2023-03-15T04:02:12.900Z,98090.34
2023-03-15T04:05:00.916Z,98095.69
2023-03-15T04:07:48.903Z,98093.38
2023-03-15T04:10:38.253Z,98090.88
2023-03-15T04:13:26.996Z,98104.38
2023-03-15T04:16:14.804Z,98105.53
2023-03-15T04:19:03.274Z,98109.31
2023-03-15T04:21:52.454Z,98117.28
2023-03-15T04:24:40.486Z,98123.56
2023-03-15T04:27:30.259Z,98130.03
2023-03-15T04:30:18.749Z,98132.97
2023-03-15T04:33:10.020Z,98145.66
2023-03-15T04:35:58.060Z,98147.63
2023-03-15T04:38:47.483Z,98160.91
2023-03-15T04:41:36.130Z,98155.88
2023-03-15T04:44:26.574Z,98165.63
2023-03-15T04:47:14.794Z,98163.31
2023-03-15T04:50:02.519Z,98166.22
2023-03-15T04:52:51.440Z,98177.75
2023-03-15T04:55:39.581Z,98174.66
2023-03-15T04:58:27.750Z,98175.81
2023-03-15T05:01:17.169Z,98174.34
2023-03-15T05:04:05.221Z,98183.09
2023-03-15T05:06:53.159Z,98188.53
2023-03-15T05:09:41.433Z,98190.44
2023-03-15T05:12:29.668Z,98188.94
2023-03-15T05:15:17.922Z,98190.81
2023-03-15T05:18:06.968Z,98209.31
2023-03-15T05:20:55.916Z,98210.28
2023-03-15T05:23:43.948Z,98212.13
2023-03-15T05:26:31.921Z,98212.31
2023-03-15T05:29:19.880Z,98207.28
2023-03-15T05:32:08.484Z,98211.03
2023-03-15T05:34:57.878Z,98210.38
2023-03-15T05:37:45.634Z,98227.13
2023-03-15T05:40:33.986Z,98223.84
2023-03-15T05:43:22.192Z,98231.78
2023-03-15T05:46:09.849Z,98242.22
2023-03-15T05:49:01.099Z,98246.66
2023-03-15T05:51:50.462Z,98259.06
2023-03-15T05:54:38.239Z,98260.00
2023-03-15T05:57:26.289Z,98276.59
2023-03-15T06:00:16.362Z,98276.69
2023-03-15T06:03:04.752Z,98273.44
2023-03-15T06:05:52.578Z,98272.69
2023-03-15T06:08:41.854Z,98278.19
2023-03-15T06:11:29.877Z,98276.63
2023-03-15T06:14:18.025Z,98277.56
2023-03-15T06:17:05.906Z,98283.69
2023-03-15T06:19:53.736Z,98279.31
2023-03-15T06:22:41.688Z,98282.97
2023-03-15T06:25:30.982Z,98301.34
2023-03-15T06:28:19.075Z,98290.53
2023-03-15T06:31:09.284Z,98299.00
2023-03-15T06:33:57.121Z,98304.50
2023-03-15T06:36:45.408Z,98301.81
2023-03-15T06:39:34.463Z,98306.84
2023-03-15T06:42:23.771Z,98303.41
2023-03-15T06:45:16.409Z,98301.72
2023-03-15T06:48:04.187Z,98300.81
2023-03-15T06:50:52.217Z,98302.38
2023-03-15T06:53:39.934Z,98297.69
2023-03-15T06:56:27.785Z,98304.06
2023-03-15T06:59:16.924Z,98296.94
2023-03-15T07:02:04.773Z,98310.03
2023-03-15T07:04:52.631Z,98310.22
2023-03-15T07:07:40.728Z,98314.13
2023-03-15T07:10:28.482Z,98311.44
2023-03-15T07:13:16.456Z,98309.44
2023-03-15T07:16:06.929Z,98311.97
2023-03-15T07:18:56.178Z,98314.47
2023-03-15T07:21:43.939Z,98316.91
2023-03-15T07:24:32.186Z,98312.25
2023-03-15T07:27:20.124Z,98315.88
2023-03-15T07:30:09.781Z,98313.38
2023-03-15T07:32:59.202Z,98327.50
2023-03-15T07:35:47.108Z,98327.84
2023-03-15T07:38:36.584Z,98337.16
2023-03-15T07:41:24.494Z,98336.06
2023-03-15T07:44:12.449Z,98330.66
2023-03-15T07:47:01.110Z,98325.97
2023-03-15T07:49:50.757Z,98331.69
2023-03-15T07:52:38.729Z,98337.41
2023-03-15T07:55:26.987Z,98336.34
2023-03-15T07:58:15.086Z,98337.81
2023-03-15T08:01:04.291Z,98332.25
2023-03-15T08:03:52.247Z,98335.09
2023-03-15T08:06:41.378Z,98333.00
2023-03-15T08:09:29.494Z,98335.44
2023-03-15T08:12:17.496Z,98344.03
2023-03-15T08:15:06.196Z,98330.28
2023-03-15T08:17:54.373Z,98328.94
2023-03-15T08:20:42.155Z,98340.91
2023-03-15T08:23:32.384Z,98343.50
2023-03-15T08:26:20.373Z,98339.53
2023-03-15T08:29:09.497Z,98334.19
2023-03-15T08:31:57.385Z,98328.91
2023-03-15T08:34:46.852Z,98343.25
2023-03-15T08:37:34.935Z,98341.13
2023-03-15T08:40:27.462Z,98335.44
2023-03-15T08:43:15.571Z,98338.38
2023-03-15T08:46:03.617Z,98332.00
2023-03-15T08:48:51.519Z,98333.94
2023-03-15T08:51:40.004Z,98326.63
2023-03-15T08:54:28.619Z,98328.16
2023-03-15T08:57:17.992Z,98325.00
2023-03-15T09:00:09.305Z,98340.31
2023-03-15T09:02:57.202Z,98335.03
2023-03-15T09:05:44.967Z,98338.78
2023-03-15T09:08:33.450Z,98339.25
2023-03-15T09:11:21.743Z,98342.31
2023-03-15T09:14:10.715Z,98347.72
2023-03-15T09:16:58.736Z,98346.28
2023-03-15T09:19:46.625Z,98352.63
2023-03-15T09:22:39.564Z,98349.44
2023-03-15T09:25:27.676Z,98356.47
2023-03-15T09:28:16.161Z,98362.63
2023-03-15T09:31:07.892Z,98354.47
2023-03-15T09:33:56.590Z,98361.53
2023-03-15T09:36:44.437Z,98369.22
2023-03-15T09:39:33.889Z,98377.97
2023-03-15T09:42:28.670Z,98382.03
2023-03-15T09:45:25.551Z,98391.13
2023-03-15T09:48:20.841Z,98389.19
2023-03-15T09:51:15.006Z,98380.09
2023-03-15T09:54:09.006Z,98384.91
2023-03-15T09:57:02.300Z,98383.69
2023-03-15T09:59:54.029Z,98379.97
2023-03-15T10:02:48.807Z,98387.03
2023-03-15T10:05:43.635Z,98388.44
2023-03-15T10:08:31.754Z,98392.88
2023-03-15T10:11:28.327Z,98391.03
2023-03-15T10:14:28.957Z,98393.22
2023-03-15T10:17:22.276Z,98399.22
2023-03-15T10:20:13.106Z,98392.41
2023-03-15T10:23:11.170Z,98397.53
2023-03-15T10:25:59.601Z,98400.53
2023-03-15T10:28:48.514Z,98394.97
2023-03-15T10:31:44.954Z,98398.22
2023-03-15T10:34:33.425Z,98398.00
2023-03-15T10:37:23.680Z,98406.47
2023-03-15T10:40:16.177Z,98407.78
2023-03-15T10:43:13.543Z,98410.88
2023-03-15T10:46:03.642Z,98416.44
2023-03-15T10:48:59.087Z,98413.06
2023-03-15T10:51:48.315Z,98417.88
2023-03-15T10:54:37.332Z,98414.81
2023-03-15T10:57:34.473Z,98410.09
2023-03-15T11:00:29.536Z,98404.19
2023-03-15T11:03:19.622Z,98412.84
2023-03-15T11:06:22.627Z,98406.72
2023-03-15T11:09:12.159Z,98408.88
2023-03-15T11:12:02.422Z,98406.84
2023-03-15T11:14:54.580Z,98400.88
2023-03-15T11:17:46.256Z,98408.66
2023-03-15T11:20:38.218Z,98406.34
2023-03-15T11:23:29.222Z,98404.69
2023-03-15T11:26:32.312Z,98411.63
2023-03-15T11:29:25.203Z,98411.00
2023-03-15T11:32:20.690Z,98414.59
2023-03-15T11:35:13.622Z,98409.09
2023-03-15T11:38:15.455Z,98413.28
2023-03-15T11:41:12.610Z,98408.03
2023-03-15T11:44:07.561Z,98410.31
2023-03-15T11:47:00.154Z,98410.31
2023-03-15T11:49:52.364Z,98417.00
2023-03-15T11:52:41.314Z,98412.59
2023-03-15T11:55:30.765Z,98411.16
2023-03-15T11:58:33.672Z,98411.88
2023-03-15T12:01:27.423Z,98409.84
2023-03-15T12:04:52.214Z,98403.28
2023-03-15T12:07:59.797Z,98405.66
2023-03-15T12:10:49.707Z,98410.09
2023-03-15T12:13:37.528Z,98413.69
2023-03-15T12:16:28.746Z,98421.22
2023-03-15T12:19:18.930Z,98410.69
2023-03-15T12:22:14.945Z,98417.41
2023-03-15T12:25:13.419Z,98425.06
2023-03-15T12:28:06.273Z,98423.19
2023-03-15T12:30:59.036Z,98427.00
2023-03-15T12:33:50.691Z,98407.16
2023-03-15T12:36:40.604Z,98422.25
2023-03-15T12:39:45.497Z,98419.75
2023-03-15T12:43:10.501Z,98418.41
2023-03-15T12:45:59.872Z,98411.97
2023-03-15T12:49:12.202Z,98413.06
2023-03-15T12:52:01.483Z,98415.09
2023-03-15T12:54:55.054Z,98422.66
2023-03-15T12:57:50.145Z,98425.88
2023-03-15T13:00:41.405Z,98418.06
2023-03-15T13:03:34.740Z,98410.91
2023-03-15T13:06:36.353Z,98420.38
2023-03-15T13:09:51.060Z,98418.56
2023-03-15T13:12:46.108Z,98428.50
2023-03-15T13:16:00.194Z,98421.31
2023-03-15T13:19:00.490Z,98423.81
2023-03-15T13:22:06.662Z,98420.94
2023-03-15T13:25:04.454Z,98421.06
2023-03-15T13:27:56.176Z,98428.47
2023-03-15T13:30:49.903Z,98425.84
2023-03-15T13:33:37.988Z,98431.84
2023-03-15T13:36:28.805Z,98424.75
2023-03-15T13:39:23.328Z,98431.72
2023-03-15T13:42:20.898Z,98425.97
2023-03-15T13:45:17.140Z,98422.63
2023-03-15T13:48:07.861Z,98428.00
2023-03-15T13:50:57.192Z,98426.56
2023-03-15T13:53:50.175Z,98425.38
2023-03-15T13:56:49.244Z,98420.59
2023-03-15T13:59:42.843Z,98427.50
2023-03-15T14:02:38.627Z,98434.59
2023-03-15T14:05:30.397Z,98430.38
2023-03-15T14:08:23.665Z,98439.81
2023-03-15T14:11:18.713Z,98428.25
2023-03-15T14:14:23.626Z,98426.91
2023-03-15T14:17:25.519Z,98424.81
2023-03-15T14:20:17.392Z,98423.53
2023-03-15T14:23:07.305Z,98420.97
2023-03-15T14:25:56.954Z,98419.00
2023-03-15T14:28:49.675Z,98416.09
2023-03-15T14:31:42.309Z,98417.25
2023-03-15T14:34:35.789Z,98416.50
2023-03-15T14:37:31.711Z,98419.38
2023-03-15T14:40:35.621Z,98418.31
2023-03-15T14:43:23.656Z,98415.75
2023-03-15T14:46:12.481Z,98422.06
2023-03-15T14:49:00.170Z,98418.66
2023-03-15T14:51:49.337Z,98428.88
2023-03-15T14:54:37.038Z,98425.28
2023-03-15T14:57:26.525Z,98423.56
2023-03-15T15:00:17.338Z,98415.88
2023-03-15T15:03:08.345Z,98419.13
2023-03-15T15:05:56.108Z,98411.66
2023-03-15T15:08:47.821Z,98407.22
2023-03-15T15:11:35.471Z,98411.91
2023-03-15T15:14:24.850Z,98415.09
2023-03-15T15:17:12.746Z,98410.44
2023-03-15T15:20:00.622Z,98405.84
2023-03-15T15:22:48.622Z,98399.44
2023-03-15T15:25:37.227Z,98404.75
2023-03-15T15:28:34.860Z,98409.19
2023-03-15T15:31:26.228Z,98410.91
2023-03-15T15:34:14.372Z,98404.47
2023-03-15T15:37:02.643Z,98410.91
2023-03-15T15:39:50.975Z,98423.16
2023-03-15T15:42:38.948Z,98415.31
2023-03-15T15:45:27.124Z,98420.03
2023-03-15T15:48:16.459Z,98422.25
2023-03-15T15:51:04.106Z,98415.25
2023-03-15T15:53:52.480Z,98416.00
2023-03-15T15:56:44.188Z,98416.13
2023-03-15T15:59:32.014Z,98413.59
2023-03-15T16:02:22.425Z,98417.81
2023-03-15T16:05:12.431Z,98421.72
2023-03-15T16:08:04.876Z,98431.44
2023-03-15T16:10:53.005Z,98432.28
2023-03-15T16:13:41.388Z,98432.06
2023-03-15T16:16:29.258Z,98445.03
2023-03-15T16:19:17.248Z,98460.81
2023-03-15T16:22:07.847Z,98474.22
2023-03-15T16:24:58.786Z,98474.78
2023-03-15T16:27:46.782Z,98477.78
2023-03-15T16:30:35.021Z,98478.84
2023-03-15T16:33:23.842Z,98500.00
2023-03-15T16:36:19.141Z,98506.44
2023-03-15T16:39:11.455Z,98505.41
2023-03-15T16:41:59.490Z,98508.91
2023-03-15T16:44:47.640Z,98519.09
2023-03-15T16:47:35.704Z,98531.50
2023-03-15T16:50:23.955Z,98547.94
2023-03-15T16:53:13.812Z,98549.72
2023-03-15T16:56:03.818Z,98560.09
2023-03-15T16:58:54.096Z,98545.22
2023-03-15T17:01:42.178Z,98554.94
2023-03-15T17:04:30.162Z,98555.28
2023-03-15T17:07:19.787Z,98569.66
2023-03-15T17:10:11.471Z,98573.94
2023-03-15T17:13:02.144Z,98582.94
2023-03-15T17:15:49.905Z,98584.94
2023-03-15T17:18:38.062Z,98579.38
2023-03-15T17:21:28.068Z,98588.88
2023-03-15T17:24:16.205Z,98582.56
2023-03-15T17:27:04.803Z,98567.03
2023-03-15T17:29:54.059Z,98567.50
2023-03-15T17:32:42.140Z,98590.78
2023-03-15T17:35:33.714Z,98590.78
2023-03-15T17:38:22.719Z,98597.44
2023-03-15T17:41:21.235Z,98591.88
2023-03-15T17:44:11.345Z,98604.75
2023-03-15T17:47:01.324Z,98610.66
2023-03-15T17:49:49.770Z,98618.22
2023-03-15T17:52:38.022Z,98619.59
2023-03-15T17:55:27.764Z,98620.13
2023-03-15T17:58:20.241Z,98626.75
2023-03-15T18:01:14.493Z,98631.50
2023-03-15T18:04:03.777Z,98632.75
2023-03-15T18:06:51.565Z,98644.63
2023-03-15T18:09:39.590Z,98646.84
2023-03-15T18:12:27.515Z,98658.59
2023-03-15T18:15:17.078Z,98664.25
2023-03-15T18:18:06.410Z,98655.88
2023-03-15T18:20:55.558Z,98663.19
2023-03-15T18:23:44.391Z,98670.75
2023-03-15T18:26:32.503Z,98670.22
2023-03-15T18:29:20.700Z,98668.84
2023-03-15T18:32:08.558Z,98668.38
2023-03-15T18:34:57.089Z,98668.81
2023-03-15T18:37:46.798Z,98678.94
2023-03-15T18:40:35.822Z,98676.72
2023-03-15T18:43:23.895Z,98687.59
2023-03-15T18:46:11.631Z,98682.75
2023-03-15T18:48:59.632Z,98680.53
2023-03-15T18:51:47.557Z,98684.47
2023-03-15T18:54:37.139Z,98686.75
2023-03-15T18:57:25.271Z,98686.38
2023-03-15T19:00:15.250Z,98687.91
2023-03-15T19:03:04.386Z,98689.22
2023-03-15T19:05:52.274Z,98693.25
2023-03-15T19:08:41.465Z,98692.88
2023-03-15T19:11:32.131Z,98692.25
2023-03-15T19:14:19.852Z,98684.09
2023-03-15T19:17:08.063Z,98683.06
2023-03-15T19:19:55.761Z,98679.22
2023-03-15T19:22:45.209Z,98694.44
2023-03-15T19:25:33.290Z,98698.47
2023-03-15T19:28:22.687Z,98696.38
2023-03-15T19:31:11.352Z,98695.94
2023-03-15T19:33:59.250Z,98699.75
2023-03-15T19:36:46.981Z,98699.44
2023-03-15T19:39:34.892Z,98706.13
2023-03-15T19:42:22.925Z,98710.22
2023-03-15T19:45:13.360Z,98709.78
2023-03-15T19:48:01.487Z,98712.75
2023-03-15T19:50:49.528Z,98713.09
2023-03-15T19:53:37.775Z,98712.53
2023-03-15T19:56:25.691Z,98714.56
2023-03-15T19:59:14.163Z,98717.34
2023-03-15T20:02:03.726Z,98726.47
2023-03-15T20:04:51.480Z,98726.78
2023-03-15T20:07:40.069Z,98735.56
2023-03-15T20:10:28.290Z,98734.16
2023-03-15T20:13:16.271Z,98735.25
2023-03-15T20:16:04.831Z,98741.56
2023-03-15T20:18:55.736Z,98741.13
2023-03-15T20:21:44.916Z,98757.16
2023-03-15T20:24:33.037Z,98760.94
2023-03-15T20:27:21.029Z,98755.09
2023-03-15T20:30:11.017Z,98763.09
2023-03-15T20:32:58.964Z,98766.75
2023-03-15T20:35:48.343Z,98773.13
2023-03-15T20:38:37.225Z,98780.34
2023-03-15T20:41:25.159Z,98783.22
2023-03-15T20:44:12.885Z,98780.75
2023-03-15T20:47:00.740Z,98788.97
2023-03-15T20:49:48.542Z,98795.44
2023-03-15T20:52:37.913Z,98803.59
2023-03-15T20:55:26.001Z,98818.81
2023-03-15T20:58:14.176Z,98811.22
2023-03-15T21:01:07.211Z,98821.66
2023-03-15T21:03:57.433Z,98817.53
2023-03-15T21:06:45.754Z,98809.91
2023-03-15T21:09:35.568Z,98812.69
2023-03-15T21:12:23.623Z,98816.34
2023-03-15T21:15:15.417Z,98816.34
2023-03-15T21:18:03.328Z,98814.81
2023-03-15T21:20:58.214Z,98823.72
2023-03-15T21:23:46.302Z,98827.41
2023-03-15T21:26:35.671Z,98821.47
2023-03-15T21:29:23.705Z,98819.09
2023-03-15T21:32:11.725Z,98815.69
2023-03-15T21:34:59.648Z,98818.47
2023-03-15T21:37:47.613Z,98810.00
2023-03-15T21:40:35.522Z,98817.97
2023-03-15T21:43:24.928Z,98813.84
2023-03-15T21:46:14.236Z,98819.28
2023-03-15T21:49:02.731Z,98829.16
2023-03-15T21:51:51.918Z,98824.06
2023-03-15T21:54:39.755Z,98832.09
2023-03-15T21:57:27.767Z,98831.44
2023-03-15T22:00:19.307Z,98827.50
2023-03-15T22:03:07.202Z,98832.84
2023-03-15T22:05:55.257Z,98831.28
2023-03-15T22:08:43.357Z,98834.88
2023-03-15T22:11:31.268Z,98838.47
2023-03-15T22:14:19.847Z,98832.53
2023-03-15T22:17:09.209Z,98837.91
2023-03-15T22:19:56.931Z,98829.25
2023-03-15T22:22:45.652Z,98834.53
2023-03-15T22:25:33.376Z,98829.59
2023-03-15T22:28:21.349Z,98832.41
2023-03-15T22:31:11.636Z,98831.69
2023-03-15T22:34:02.963Z,98835.34
2023-03-15T22:36:52.825Z,98842.44
2023-03-15T22:39:42.030Z,98838.31
2023-03-15T22:42:29.711Z,98835.75
2023-03-15T22:45:17.572Z,98836.81
2023-03-15T22:48:05.478Z,98843.09
2023-03-15T22:50:59.877Z,98850.13
2023-03-15T22:53:48.023Z,98851.94
2023-03-15T22:56:36.316Z,98848.75
2023-03-15T22:59:28.919Z,98845.31
2023-03-15T23:02:16.620Z,98848.81
2023-03-15T23:05:04.761Z,98850.63
2023-03-15T23:07:53.616Z,98846.47
2023-03-15T23:10:42.914Z,98854.38
2023-03-15T23:13:31.066Z,98858.09
2023-03-15T23:16:19.740Z,98858.22
2023-03-15T23:19:07.710Z,98855.81
2023-03-15T23:21:55.580Z,98847.13
2023-03-15T23:24:45.940Z,98849.03
2023-03-15T23:27:33.981Z,98854.13
2023-03-15T23:30:22.271Z,98852.41
2023-03-15T23:33:10.177Z,98853.31
2023-03-15T23:35:58.585Z,98857.75
2023-03-15T23:38:46.656Z,98856.91
2023-03-15T23:41:36.233Z,98850.16
2023-03-15T23:44:24.064Z,98851.97
2023-03-15T23:47:12.336Z,98858.22
2023-03-15T23:50:02.426Z,98856.44
2023-03-15T23:52:50.568Z,98856.44
2023-03-15T23:55:38.582Z,98849.63
2023-03-15T23:58:27.948Z,98858.47
